Time;durP1;ratioP1;P1;durP2;ratioP2;P2;SDS_P1;SDS_P2;PMS_P1;PMS_P2;Temp;Humidity;BMP_temperature;BMP_pressure;BME280_temperature;BME280_humidity;BME280_pressure;Samples;Min_cycle;Max_cycle;Signal;HPM_P1;HPM_P2
2022/04/18 00:01:32;;;;;;;8.77;5.35;;;;;;;10.48;43.95;102049.78;5111988;28;20492;-29
2022/04/18 00:04:00;;;;;;;10.27;6.30;;;;;;;10.46;43.93;102040.84;5098526;28;20059;-27
2022/04/18 00:06:33;;;;;;;9.45;5.85;;;;;;;10.44;44.11;102042.22;5106426;28;20055;-28
2022/04/18 00:09:00;;;;;;;9.52;5.90;;;;;;;10.40;44.25;102041.91;5110753;28;20050;-28
2022/04/18 00:11:28;;;;;;;8.35;5.70;;;;;;;10.40;44.02;102041.91;5109406;28;20054;-28
2022/04/18 00:13:56;;;;;;;10.82;6.50;;;;;;;10.40;44.08;102035.47;5110191;28;20093;-32
2022/04/18 00:16:24;;;;;;;9.45;6.20;;;;;;;10.39;44.29;102034.66;5109521;27;20043;-28
2022/04/18 00:18:52;;;;;;;8.57;5.75;;;;;;;10.36;44.38;102024.03;5110724;28;20048;-27
2022/04/18 00:21:20;;;;;;;9.55;6.45;;;;;;;10.34;44.43;102029.06;5111794;28;20056;-28
2022/04/18 00:23:49;;;;;;;9.60;6.03;;;;;;;10.33;44.43;102021.78;5109556;28;20039;-27
2022/04/18 00:26:17;;;;;;;10.68;6.50;;;;;;;10.27;44.79;102017.28;5110678;28;20402;-26
2022/04/18 00:28:45;;;;;;;12.20;7.10;;;;;;;10.26;44.68;102021.19;5110773;27;20043;-28
2022/04/18 00:31:12;;;;;;;10.93;7.30;;;;;;;10.23;44.91;102019.75;5103623;28;20042;-27
2022/04/18 00:33:40;;;;;;;9.13;5.97;;;;;;;10.21;45.00;102023.91;5111536;28;20086;-28
2022/04/18 00:36:08;;;;;;;11.65;7.65;;;;;;;10.19;45.16;102017.78;5110425;28;20044;-27
2022/04/18 00:38:36;;;;;;;10.88;6.60;;;;;;;10.16;45.23;102021.94;5111064;28;20073;-28
2022/04/18 00:41:05;;;;;;;10.50;7.18;;;;;;;10.14;45.53;102017.72;5109454;28;20401;-27
2022/04/18 00:43:44;;;;;;;10.40;7.60;;;;;;;10.12;45.66;102026.34;5110444;28;20489;-28
2022/04/18 00:46:12;;;;;;;11.35;7.78;;;;;;;10.08;45.95;102032.72;5110619;28;20436;-34
2022/04/18 00:48:41;;;;;;;14.38;8.07;;;;;;;10.06;45.93;102026.56;5110260;28;20515;-34
2022/04/18 00:51:11;;;;;;;9.45;6.63;;;;;;;10.02;46.10;102021.53;5111787;28;20055;-34
2022/04/18 00:53:41;;;;;;;10.60;6.97;;;;;;;9.98;46.13;102023.19;5109560;28;20147;-33
2022/04/18 00:56:14;;;;;;;9.60;6.80;;;;;;;9.94;46.53;102022.03;5110307;28;20420;-28
2022/04/18 00:58:43;;;;;;;9.27;6.43;;;;;;;9.90;46.73;102023.66;5099566;28;20058;-28
2022/04/18 01:01:11;;;;;;;9.80;6.47;;;;;;;9.86;47.09;102007.75;5110367;28;20047;-27
2022/04/18 01:03:39;;;;;;;10.80;7.55;;;;;;;9.81;47.51;102019.69;5110069;28;20048;-34
2022/04/18 01:06:07;;;;;;;11.10;7.47;;;;;;;9.76;48.08;102014.09;5109382;28;20050;-28
2022/04/18 01:08:35;;;;;;;11.75;7.60;;;;;;;9.71;48.32;102011.25;5106693;28;20039;-28
2022/04/18 01:11:06;;;;;;;12.30;7.90;;;;;;;9.65;48.42;102004.78;5111437;28;20075;-29
2022/04/18 01:13:53;;;;;;;12.80;8.23;;;;;;;9.59;48.65;102007.81;5108218;28;20097;-27
2022/04/18 01:16:50;;;;;;;11.82;8.10;;;;;;;9.54;49.09;102002.16;5094342;28;20059;-32
2022/04/18 01:19:22;;;;;;;12.00;8.73;;;;;;;9.49;49.31;101990.97;5098971;28;20047;-28
2022/04/18 01:22:24;;;;;;;12.30;8.52;;;;;;;9.44;49.30;101990.91;5102005;28;20058;-28
2022/04/18 01:30:35;;;;;;;13.15;9.30;;;;;;;9.33;49.62;101995.56;5109989;28;20047;-31
2022/04/18 01:33:05;;;;;;;13.93;9.13;;;;;;;9.35;49.45;101995.31;5111402;28;20154;-28
2022/04/18 01:35:36;;;;;;;13.40;9.35;;;;;;;9.31;49.59;101993.03;5109254;28;20096;-30
2022/04/18 01:38:07;;;;;;;12.57;9.13;;;;;;;9.28;49.77;101990.78;5111095;28;20104;-28
2022/04/18 01:40:35;;;;;;;13.70;10.23;;;;;;;9.26;49.75;101992.13;5111150;28;20051;-32
2022/04/18 01:43:06;;;;;;;13.35;9.23;;;;;;;9.22;49.92;101990.97;5109091;28;20067;-29
2022/04/18 01:45:34;;;;;;;14.38;9.88;;;;;;;9.17;50.14;101979.81;5109683;28;20133;-32
2022/04/18 01:48:18;;;;;;;14.35;10.75;;;;;;;9.14;50.58;101986.72;5108845;28;20139;-27
2022/04/18 01:50:46;;;;;;;13.82;9.30;;;;;;;9.13;50.47;101981.44;5109475;28;20036;-28
2022/04/18 01:53:15;;;;;;;15.05;10.63;;;;;;;9.08;50.96;101982.22;5113038;28;20055;-29
2022/04/18 01:55:43;;;;;;;16.00;11.32;;;;;;;9.07;50.98;101974.94;5114101;28;20382;-33
2022/04/18 01:58:11;;;;;;;14.98;10.13;;;;;;;9.07;51.22;101985.25;5113462;28;20055;-27
2022/04/18 02:00:39;;;;;;;16.33;11.70;;;;;;;9.03;51.20;101972.94;5113192;28;20051;-28
2022/04/18 02:03:08;;;;;;;14.85;11.30;;;;;;;9.00;51.53;101965.94;5112578;28;20116;-29
2022/04/18 02:05:35;;;;;;;17.95;11.68;;;;;;;8.99;51.65;101975.44;5113396;28;20039;-27
2022/04/18 02:08:04;;;;;;;16.50;11.48;;;;;;;8.96;52.17;101965.66;5113501;28;20047;-28
2022/04/18 02:10:33;;;;;;;15.95;11.32;;;;;;;8.96;52.31;101964.81;5112463;28;20051;-28
2022/04/18 02:13:01;;;;;;;17.35;12.57;;;;;;;8.95;52.33;101963.97;5113264;28;20139;-29
2022/04/18 02:15:31;;;;;;;16.98;11.52;;;;;;;8.94;52.93;101962.28;5112893;28;20126;-30
2022/04/18 02:18:02;;;;;;;14.60;10.93;;;;;;;8.91;52.97;101957.25;5109133;28;20051;-27
2022/04/18 02:20:30;;;;;;;17.52;12.27;;;;;;;8.89;53.63;101955.81;5113128;28;20039;-30
2022/04/18 02:22:59;;;;;;;18.17;12.25;;;;;;;8.87;53.82;101949.66;5112476;28;20126;-27
2022/04/18 02:25:27;;;;;;;17.63;11.38;;;;;;;8.84;53.77;101955.75;5112820;28;20047;-27
2022/04/18 02:28:02;;;;;;;16.52;11.50;;;;;;;8.83;54.40;101954.06;5112829;28;20051;-27
2022/04/18 02:30:31;;;;;;;15.52;11.32;;;;;;;8.80;54.64;101949.03;5112107;28;20044;-27
2022/04/18 02:33:01;;;;;;;15.43;11.63;;;;;;;8.79;55.22;101947.38;5112815;28;20039;-28
2022/04/18 02:35:30;;;;;;;15.15;10.73;;;;;;;8.76;56.44;101937.59;5112812;28;20052;-27
2022/04/18 02:37:59;;;;;;;17.13;12.43;;;;;;;8.77;55.95;101947.63;5111678;28;20121;-34
2022/04/18 02:40:37;;;;;;;15.93;11.35;;;;;;;8.79;55.79;101948.19;5112597;28;20055;-34
2022/04/18 02:43:06;;;;;;;17.38;12.70;;;;;;;8.79;56.36;101937.06;5112512;28;20451;-33
2022/04/18 02:45:36;;;;;;;17.85;11.52;;;;;;;8.80;56.68;101933.16;5111898;28;20142;-29
2022/04/18 02:48:37;;;;;;;16.85;12.00;;;;;;;8.79;57.24;101937.06;5107367;28;20417;-30
2022/04/18 02:51:09;;;;;;;17.17;10.75;;;;;;;8.82;56.82;101930.13;5111513;28;20047;-30
2022/04/18 02:53:37;;;;;;;15.55;11.27;;;;;;;8.81;57.36;101923.72;5112322;28;20450;-29
2022/04/18 02:56:08;;;;;;;19.17;12.25;;;;;;;8.81;57.54;101920.09;5112582;28;20131;-28
2022/04/18 02:58:43;;;;;;;16.40;11.18;;;;;;;8.79;58.47;101914.78;5111380;28;20047;-28
2022/04/18 03:01:11;;;;;;;14.32;10.75;;;;;;;8.81;58.29;101917.31;5113391;28;20419;-27
2022/04/18 03:03:40;;;;;;;14.68;9.75;;;;;;;8.80;58.35;101919.25;5111407;28;20447;-26
2022/04/18 03:06:07;;;;;;;15.13;11.35;;;;;;;8.81;58.70;101906.19;5111207;28;20069;-27
2022/04/18 03:08:35;;;;;;;13.18;10.52;;;;;;;8.81;59.07;101920.09;5113385;28;20408;-26
2022/04/18 03:11:05;;;;;;;15.38;10.95;;;;;;;8.79;59.76;101917.56;5113223;28;20496;-29
2022/04/18 03:13:36;;;;;;;14.52;10.70;;;;;;;8.77;61.22;101917.03;5111172;28;20402;-28
2022/04/18 03:16:14;;;;;;;14.77;10.90;;;;;;;8.77;60.54;101910.59;5111788;28;20051;-28
2022/04/18 03:18:42;;;;;;;15.80;11.00;;;;;;;8.74;61.02;101911.13;5112059;28;20488;-27
2022/04/18 03:21:10;;;;;;;14.57;10.65;;;;;;;8.69;62.08;101905.50;5112556;28;20036;-27
2022/04/18 03:23:41;;;;;;;14.45;10.63;;;;;;;8.64;62.84;101906.28;5111589;28;20092;-28
2022/04/18 03:26:13;;;;;;;16.23;11.35;;;;;;;8.60;63.90;101902.31;5113229;28;20373;-29
2022/04/18 03:28:48;;;;;;;15.82;11.43;;;;;;;8.56;64.06;101899.25;5101850;28;20059;-28
2022/04/18 03:31:17;;;;;;;15.07;10.90;;;;;;;8.54;64.26;101898.66;5111750;28;20046;-29
2022/04/18 03:33:46;;;;;;;16.05;11.45;;;;;;;8.48;66.00;101908.03;5110846;28;20489;-28
2022/04/18 03:41:49;;;;;;;15.10;11.18;;;;;;;8.32;67.81;101899.75;5090517;28;20071;-28
2022/04/18 03:44:17;;;;;;;15.82;11.27;;;;;;;8.30;67.55;101895.28;5111461;28;20415;-27
2022/04/18 03:46:46;;;;;;;15.10;11.15;;;;;;;8.26;68.89;101896.88;5111269;28;20102;-25
2022/04/18 03:49:14;;;;;;;15.63;11.05;;;;;;;8.25;69.31;101891.59;5110147;28;20079;-27
2022/04/18 03:51:47;;;;;;;13.55;10.00;;;;;;;8.21;69.95;101880.13;5111518;28;20059;-28
2022/04/18 03:54:15;;;;;;;13.32;10.43;;;;;;;8.19;70.08;101879.53;5111350;28;20108;-27
2022/04/18 03:56:42;;;;;;;13.77;9.55;;;;;;;8.19;70.00;101876.75;5110471;28;20039;-32
2022/04/18 03:59:10;;;;;;;13.85;9.43;;;;;;;8.15;71.35;101875.63;5112252;28;20451;-28
2022/04/18 04:01:58;;;;;;;13.77;10.45;;;;;;;8.11;73.07;101876.41;5099318;28;20044;-32
2022/04/18 04:04:28;;;;;;;13.70;10.10;;;;;;;8.15;72.17;101883.13;5108119;28;20131;-27
2022/04/18 04:07:00;;;;;;;13.80;10.40;;;;;;;8.12;73.42;101878.91;5112229;28;20036;-28
2022/04/18 04:09:28;;;;;;;14.25;9.88;;;;;;;8.13;72.78;101879.75;5109714;28;20523;-27
2022/04/18 04:11:56;;;;;;;13.27;9.80;;;;;;;8.12;73.50;101883.63;5110877;28;20108;-30
2022/04/18 04:14:24;;;;;;;14.55;10.15;;;;;;;8.11;73.17;101888.34;5110340;28;20071;-28
2022/04/18 04:16:51;;;;;;;12.25;9.80;;;;;;;8.09;73.71;101881.38;5110946;28;20031;-27
2022/04/18 04:19:20;;;;;;;13.48;9.88;;;;;;;8.05;74.34;101880.19;5110806;28;20055;-28
2022/04/18 04:21:48;;;;;;;12.73;10.10;;;;;;;8.01;74.22;101881.81;5110574;28;20413;-29
2022/04/18 04:24:16;;;;;;;16.60;11.10;;;;;;;7.95;74.76;101881.75;5110048;28;20065;-28
2022/04/18 04:26:45;;;;;;;14.23;10.35;;;;;;;7.91;76.03;101875.03;5110214;28;20092;-29
2022/04/18 04:29:20;;;;;;;13.55;9.27;;;;;;;7.87;76.13;101873.84;5110148;28;20121;-34
2022/04/18 04:32:07;;;;;;;13.30;9.73;;;;;;;7.82;76.71;101876.53;5110100;28;20067;-32
2022/04/18 04:34:40;;;;;;;16.00;10.68;;;;;;;7.81;77.31;101869.31;5110373;28;20174;-28
2022/04/18 04:37:30;;;;;;;13.80;9.65;;;;;;;7.76;77.11;101860.91;5109302;28;20047;-28
2022/04/18 04:40:15;;;;;;;14.32;10.13;;;;;;;7.72;77.36;101867.25;5110028;28;20083;-27
2022/04/18 04:42:43;;;;;;;12.95;9.57;;;;;;;7.71;77.08;101866.41;5108117;28;20044;-33
2022/04/18 04:45:11;;;;;;;11.43;8.85;;;;;;;7.70;76.83;101861.94;5109517;28;20082;-32
2022/04/18 04:47:58;;;;;;;12.98;9.13;;;;;;;7.68;76.33;101872.47;5111109;28;20041;-31
2022/04/18 04:50:31;;;;;;;13.20;9.18;;;;;;;7.67;76.74;101870.78;5110314;28;20514;-33
2022/04/18 04:53:00;;;;;;;;;;;;;;;7.63;77.41;101869.59;5109681;28;20097;-35
2022/04/18 04:55:29;;;;;;;12.95;8.65;;;;;;;7.60;76.61;101873.72;5110451;28;19920;-29
2022/04/18 04:57:57;;;;;;;10.80;8.15;;;;;;;7.65;75.44;101874.91;5107486;28;20048;-28
2022/04/18 05:00:31;;;;;;;10.95;7.97;;;;;;;7.64;75.50;101865.72;5111755;28;20040;-28
2022/04/18 05:03:34;;;;;;;11.85;8.43;;;;;;;7.64;75.30;101878.78;5048767;28;20060;-28
2022/04/18 05:06:05;;;;;;;10.93;7.93;;;;;;;7.64;74.99;101874.06;5094068;28;20462;-27
2022/04/18 05:08:36;;;;;;;13.75;8.80;;;;;;;7.64;75.35;101867.66;5109238;28;20039;-28
2022/04/18 05:11:06;;;;;;;9.80;7.65;;;;;;;7.65;74.81;101874.91;5110275;28;20048;-27
2022/04/18 05:13:43;;;;;;;10.88;8.02;;;;;;;7.64;74.85;101873.22;5108071;28;20055;-28
2022/04/18 05:16:12;;;;;;;10.40;7.32;;;;;;;7.64;75.14;101873.22;5110082;28;20142;-27
2022/04/18 05:18:49;;;;;;;10.75;7.60;;;;;;;7.64;74.81;101871.28;5109442;28;20070;-27
2022/04/18 05:21:18;;;;;;;12.05;8.10;;;;;;;7.64;74.86;101865.72;5109840;28;20097;-27
2022/04/18 05:23:48;;;;;;;11.43;8.10;;;;;;;7.62;75.04;101876.25;5109895;28;20087;-27
2022/04/18 05:26:16;;;;;;;9.98;7.60;;;;;;;7.64;74.96;101871.28;5109705;28;20040;-34
2022/04/18 05:28:45;;;;;;;10.55;7.60;;;;;;;7.64;74.76;101873.22;5113597;28;20135;-28
2022/04/18 05:31:17;;;;;;;9.82;7.38;;;;;;;7.64;75.25;101876.84;5107812;28;20092;-28
2022/04/18 05:33:44;;;;;;;11.93;8.20;;;;;;;7.67;75.22;101875.50;5112974;28;20051;-28
2022/04/18 05:36:24;;;;;;;10.27;8.00;;;;;;;7.69;74.44;101879.69;5106700;28;20055;-27
2022/04/18 05:38:53;;;;;;;10.25;7.57;;;;;;;7.73;74.10;101872.53;5113684;28;20048;-27
2022/04/18 05:41:29;;;;;;;10.00;7.38;;;;;;;7.76;74.20;101877.59;5112779;28;20060;-27
2022/04/18 05:43:57;;;;;;;9.77;7.38;;;;;;;7.79;74.71;101876.25;5113088;28;20073;-27
2022/04/18 05:46:31;;;;;;;9.73;7.50;;;;;;;7.79;74.99;101876.25;5113767;28;20699;-27
2022/04/18 05:48:59;;;;;;;10.60;7.60;;;;;;;7.80;75.29;101877.91;5112632;28;20071;-28
2022/04/18 05:51:28;;;;;;;11.07;7.60;;;;;;;7.83;75.22;101885.72;5113597;28;20044;-27
2022/04/18 05:53:56;;;;;;;10.18;7.30;;;;;;;7.84;75.19;101874.34;5113455;28;20150;-26
2022/04/18 05:56:31;;;;;;;10.88;8.05;;;;;;;7.87;75.79;101884.97;5113205;28;20079;-27
2022/04/18 05:59:01;;;;;;;10.32;7.30;;;;;;;7.90;75.84;101890.00;5113434;28;20462;-27
2022/04/18 06:01:55;;;;;;;9.23;7.20;;;;;;;7.91;76.37;101897.25;5112560;28;20046;-26
2022/04/18 06:04:29;;;;;;;12.68;7.75;;;;;;;7.97;75.82;101891.78;5113411;28;20051;-28
2022/04/18 06:07:17;;;;;;;9.65;6.97;;;;;;;8.02;75.80;101897.38;5114615;28;20042;-27
2022/04/18 06:09:51;;;;;;;9.73;7.18;;;;;;;8.08;75.61;101886.09;5112584;28;20512;-27
2022/04/18 06:12:20;;;;;;;9.02;7.00;;;;;;;8.14;75.37;101884.22;5112720;28;20055;-29
2022/04/18 06:14:49;;;;;;;11.13;6.90;;;;;;;8.21;75.54;101887.63;5113043;28;20147;-27
2022/04/18 06:17:18;;;;;;;9.48;7.00;;;;;;;8.27;75.61;101895.78;5111975;28;20051;-27
2022/04/18 06:19:47;;;;;;;9.02;6.90;;;;;;;8.34;75.67;101887.28;5113128;28;20142;-34
2022/04/18 06:22:17;;;;;;;9.60;6.75;;;;;;;8.43;75.37;101887.66;5112309;28;20042;-30
2022/04/18 06:24:45;;;;;;;8.52;6.72;;;;;;;8.51;75.34;101893.63;5112828;28;20039;-30
2022/04/18 06:27:18;;;;;;;9.57;6.60;;;;;;;8.60;74.98;101892.03;5112380;28;20075;-28
2022/04/18 06:29:45;;;;;;;9.55;6.82;;;;;;;8.71;74.44;101894.94;5112995;28;20047;-33
2022/04/18 06:32:15;;;;;;;7.93;6.53;;;;;;;8.80;74.30;101893.38;5114238;28;20103;-27
2022/04/18 06:34:46;;;;;;;10.18;7.00;;;;;;;8.90;73.22;101896.28;5113719;28;20042;-27
2022/04/18 06:37:20;;;;;;;7.97;6.22;;;;;;;9.03;72.02;101898.63;5111737;28;20465;-27
2022/04/18 06:39:56;;;;;;;9.45;6.32;;;;;;;9.17;71.23;101894.31;5112966;28;20071;-27
2022/04/18 06:42:35;;;;;;;7.80;5.85;;;;;;;9.35;70.74;101900.59;5111589;28;20447;-28
2022/04/18 06:45:05;;;;;;;7.80;5.75;;;;;;;9.57;69.42;101906.91;5111646;28;20051;-28
2022/04/18 06:47:34;;;;;;;9.13;6.35;;;;;;;9.88;68.02;101905.16;5111916;28;20051;-29
2022/04/18 06:50:16;;;;;;;8.07;6.40;;;;;;;10.29;65.84;101900.69;5111508;28;20051;-27
2022/04/18 06:53:10;;;;;;;7.20;5.70;;;;;;;10.77;63.64;101895.84;5105263;28;20059;-27
2022/04/18 06:59:17;;;;;;;11.98;5.85;;;;;;;11.72;59.40;101891.41;5099107;28;20058;-28
2022/04/18 07:01:46;;;;;;;8.13;5.30;;;;;;;12.21;57.98;101888.81;5112176;28;20082;-28
2022/04/18 07:04:14;;;;;;;7.15;5.20;;;;;;;12.64;56.17;101881.63;5112272;28;20040;-28
2022/04/18 07:06:42;;;;;;;6.28;5.00;;;;;;;12.95;53.77;101889.84;5111550;28;20560;-28
2022/04/18 07:09:13;;;;;;;7.28;4.63;;;;;;;13.29;50.46;101887.94;5111349;28;20412;-33
2022/04/18 07:11:47;;;;;;;7.53;4.90;;;;;;;13.53;49.67;101882.41;5110770;28;20062;-30
2022/04/18 07:14:18;;;;;;;6.65;4.50;;;;;;;13.72;47.70;101897.38;5112175;28;20045;-29
2022/04/18 07:16:49;;;;;;;8.98;5.00;;;;;;;13.99;47.34;101890.38;5112081;28;20457;-28
2022/04/18 07:19:23;;;;;;;6.75;4.70;;;;;;;14.14;45.74;101879.00;5111216;28;20093;-29
2022/04/18 07:21:52;;;;;;;7.15;4.78;;;;;;;14.35;45.94;101888.84;5111728;28;20047;-29
2022/04/18 07:24:22;;;;;;;5.57;3.90;;;;;;;14.74;45.38;101885.00;5111795;28;20123;-29
2022/04/18 07:26:53;;;;;;;6.38;4.35;;;;;;;14.98;44.08;101899.00;5111095;28;20071;-30
2022/04/18 07:29:21;;;;;;;6.88;4.15;;;;;;;15.11;43.80;101889.78;5111513;28;20146;-30
2022/04/18 07:31:49;;;;;;;6.50;4.10;;;;;;;15.26;43.31;101891.50;5111109;28;20047;-31
2022/04/18 07:34:17;;;;;;;6.57;3.95;;;;;;;15.45;42.64;101889.50;5110386;28;20142;-32
2022/04/18 07:36:45;;;;;;;5.63;3.67;;;;;;;15.60;42.35;101889.28;5111470;28;20618;-30
2022/04/18 07:39:13;;;;;;;5.88;3.42;;;;;;;15.88;42.14;101887.38;5111678;28;20047;-34
2022/04/18 07:41:51;;;;;;;5.60;3.45;;;;;;;16.20;41.19;101889.28;5109789;28;20054;-29
2022/04/18 07:44:22;;;;;;;4.75;3.30;;;;;;;16.44;40.19;101883.44;5100054;28;20130;-29
2022/04/18 07:46:51;;;;;;;5.70;3.40;;;;;;;16.65;39.59;101897.97;5106971;28;20043;-32
2022/04/18 07:49:31;;;;;;;4.68;3.10;;;;;;;16.72;39.32;101885.13;5100177;28;20070;-28
2022/04/18 07:51:59;;;;;;;4.35;2.90;;;;;;;16.91;39.28;101878.50;5108984;28;20085;-29
2022/04/18 07:54:40;;;;;;;3.88;2.85;;;;;;;17.02;38.46;101882.75;5098749;28;20591;-34
2022/04/18 07:57:11;;;;;;;4.72;2.95;;;;;;;17.11;37.62;101883.66;5107265;28;20044;-33
2022/04/18 07:59:47;;;;;;;6.40;3.22;;;;;;;17.25;38.24;101870.34;5111309;28;20058;-34
2022/04/18 08:02:15;;;;;;;3.45;2.55;;;;;;;17.64;38.32;101874.44;5109333;28;20047;-31
2022/04/18 08:04:58;;;;;;;4.63;2.60;;;;;;;17.92;36.90;101877.97;5111348;28;20055;-32
2022/04/18 08:07:38;;;;;;;4.88;2.65;;;;;;;18.13;37.16;101876.22;5104423;28;20082;-34
2022/04/18 08:10:07;;;;;;;3.95;2.72;;;;;;;18.38;36.84;101875.50;5111567;28;20039;-29
2022/04/18 08:12:41;;;;;;;4.10;2.78;;;;;;;18.75;35.81;101876.13;5106862;28;20492;-34
2022/04/18 08:15:27;;;;;;;3.80;2.50;;;;;;;18.97;35.16;101894.97;5100787;28;20051;-30
2022/04/18 08:17:55;;;;;;;5.28;2.90;;;;;;;18.97;34.57;101887.31;5110485;28;20130;-29
2022/04/18 08:20:42;;;;;;;4.90;2.67;;;;;;;19.03;34.68;101880.31;5100481;28;20048;-34
2022/04/18 08:23:10;;;;;;;3.65;2.60;;;;;;;19.36;35.13;101883.50;5109764;28;20560;-30
2022/04/18 08:25:56;;;;;;;3.70;2.40;;;;;;;19.67;34.15;101880.47;5102858;28;20652;-34
2022/04/18 08:28:48;;;;;;;3.65;2.90;;;;;;;19.78;34.45;101883.81;5095419;28;20078;-33
2022/04/18 08:31:16;;;;;;;3.83;2.40;;;;;;;20.14;33.64;101892.69;5110645;28;20051;-31
2022/04/18 08:33:53;;;;;;;3.22;2.42;;;;;;;20.52;33.56;101878.53;5099990;28;20044;-33
2022/04/18 08:36:21;;;;;;;4.05;2.60;;;;;;;20.57;32.67;101883.19;5108986;28;20093;-29
2022/04/18 08:38:50;;;;;;;3.42;2.42;;;;;;;20.81;32.79;101886.19;5109892;28;20050;-29
2022/04/18 08:41:39;;;;;;;3.95;2.20;;;;;;;21.32;32.34;101881.31;5111298;28;20511;-30
2022/04/18 08:44:16;;;;;;;3.75;2.20;;;;;;;21.40;32.06;101876.72;5098792;28;20054;-29
2022/04/18 08:46:45;;;;;;;3.58;2.15;;;;;;;21.56;32.32;101875.75;5110197;28;20035;-29
2022/04/18 08:54:56;;;;;;;3.05;1.60;;;;;;;22.00;30.97;101867.59;5102203;28;20047;-29
2022/04/18 08:57:25;;;;;;;3.45;2.10;;;;;;;21.51;30.19;101875.13;5109549;28;20062;-29
2022/04/18 08:59:56;;;;;;;3.03;1.80;;;;;;;21.36;31.11;101865.25;5110067;28;20401;-28
2022/04/18 09:02:27;;;;;;;2.33;1.65;;;;;;;21.41;30.73;101872.72;5115192;28;20052;-28
2022/04/18 09:05:11;;;;;;;3.05;1.90;;;;;;;21.36;30.78;101865.25;5107097;28;20127;-32
2022/04/18 09:07:42;;;;;;;3.65;2.00;;;;;;;21.04;30.05;101875.34;5116639;28;20050;-30
2022/04/18 09:10:11;;;;;;;3.40;2.10;;;;;;;20.80;30.62;101878.84;5116583;27;20048;-29
2022/04/18 09:12:42;;;;;;;4.00;2.40;;;;;;;20.69;29.83;101871.91;5116211;28;20036;-30
2022/04/18 09:15:31;;;;;;;2.75;2.03;;;;;;;20.86;30.49;101874.63;5116354;28;20051;-29
2022/04/18 09:18:10;;;;;;;3.63;2.65;;;;;;;21.28;30.16;101875.50;5115984;28;20553;-32
2022/04/18 09:20:59;;;;;;;2.53;1.70;;;;;;;21.58;30.76;101876.22;5118108;28;20063;-29
2022/04/18 09:23:33;;;;;;;2.92;1.92;;;;;;;21.86;30.43;101873.59;5116782;28;20047;-30
2022/04/18 09:26:27;;;;;;;3.00;1.98;;;;;;;21.97;30.10;101863.44;5113935;28;20066;-31
2022/04/18 09:29:05;;;;;;;4.05;2.10;;;;;;;22.20;29.48;101865.84;5116012;28;20469;-32
2022/04/18 09:31:41;;;;;;;2.78;1.80;;;;;;;22.40;29.78;101866.94;5116496;27;20150;-32
2022/04/18 09:34:32;;;;;;;3.70;2.20;;;;;;;22.57;29.64;101866.72;5111605;28;20139;-37
2022/04/18 09:37:11;;;;;;;3.78;2.17;;;;;;;22.90;29.27;101867.41;5116050;28;20047;-34
2022/04/18 09:39:42;;;;;;;3.55;2.25;;;;;;;23.47;28.82;101866.28;5115069;28;20109;-34
2022/04/18 09:42:11;;;;;;;3.28;1.95;;;;;;;23.99;28.18;101868.97;5116442;28;20561;-31
2022/04/18 09:45:03;;;;;;;3.88;1.90;;;;;;;23.93;28.13;101861.91;5111664;28;20048;-29
2022/04/18 09:47:36;;;;;;;2.88;2.08;;;;;;;24.25;27.33;101873.34;5115580;28;20222;-28
2022/04/18 09:50:58;;;;;;;3.03;2.20;;;;;;;24.05;27.26;101864.66;5116300;28;20135;-33
2022/04/18 09:53:18;;;;;;;3.83;1.30;;;;;;;24.16;26.56;101867.00;5112189;28;20376;-31
2022/04/18 09:55:47;;;;;;;2.58;0.90;;;;;;;23.98;26.25;101864.47;5117362;27;20051;-29
2022/04/18 09:58:14;;;;;;;2.33;1.10;;;;;;;23.66;25.60;101859.91;5116755;28;20036;-33
2022/04/18 10:01:05;;;;;;;1.80;1.10;;;;;;;23.49;25.09;101866.75;5116789;27;20035;-29
2022/04/18 10:03:36;;;;;;;2.17;0.73;;;;;;;23.49;25.49;101865.91;5114248;28;20651;-34
2022/04/18 10:06:04;;;;;;;2.20;0.80;;;;;;;23.54;25.61;101863.69;5116324;27;20325;-35
2022/04/18 10:08:33;;;;;;;2.50;0.90;;;;;;;23.28;25.15;101849.03;5114298;27;20040;-34
2022/04/18 10:11:03;;;;;;;1.88;0.95;;;;;;;23.05;25.76;101865.00;5115833;28;20058;-34
2022/04/18 10:13:34;;;;;;;2.20;1.10;;;;;;;22.91;25.75;101862.53;5113648;27;20379;-34
2022/04/18 10:16:03;;;;;;;1.85;1.05;;;;;;;22.74;25.81;101863.63;5111148;28;20073;-29
2022/04/18 10:18:40;;;;;;;2.00;0.98;;;;;;;22.64;26.01;101856.38;5113095;28;20055;-30
2022/04/18 10:21:26;;;;;;;2.22;0.93;;;;;;;22.51;24.89;101859.59;5112803;28;20048;-30
2022/04/18 10:24:38;;;;;;;1.98;1.00;;;;;;;22.45;24.95;101864.69;5112427;28;20062;-33
2022/04/18 10:27:29;;;;;;;2.58;0.93;;;;;;;22.25;24.72;101849.41;5110842;28;20042;-31
2022/04/18 10:30:00;;;;;;;2.28;1.10;;;;;;;22.20;25.15;101855.31;5102130;28;20047;-29
2022/04/18 10:32:30;;;;;;;2.08;1.00;;;;;;;22.22;25.63;101852.13;5112328;28;20546;-29
2022/04/18 10:35:01;;;;;;;3.97;1.00;;;;;;;22.24;24.96;101863.97;5112841;28;20510;-28
2022/04/18 10:37:31;;;;;;;2.00;0.90;;;;;;;21.89;25.28;101853.00;5108453;28;20059;-35
2022/04/18 10:40:00;;;;;;;2.00;1.10;;;;;;;21.66;25.84;101858.25;5110950;28;20468;-28
2022/04/18 10:42:33;;;;;;;2.57;1.00;;;;;;;21.63;26.07;101856.13;5109168;28;20035;-34
2022/04/18 10:45:05;;;;;;;2.38;1.17;;;;;;;21.66;26.10;101868.78;5112687;28;20104;-31
2022/04/18 10:48:13;;;;;;;2.42;1.23;;;;;;;21.58;24.63;101856.34;5112391;28;20051;-33
2022/04/18 10:50:45;;;;;;;3.75;1.17;;;;;;;21.75;25.42;101857.34;5097297;28;20048;-35
2022/04/18 10:53:35;;;;;;;2.03;0.98;;;;;;;22.19;24.96;101859.34;5112705;27;20049;-28
2022/04/18 10:56:12;;;;;;;2.17;1.20;;;;;;;22.39;25.30;101866.09;5104033;28;20046;-28
2022/04/18 10:58:43;;;;;;;2.78;1.20;;;;;;;22.27;25.34;101851.88;5099941;28;20218;-27
2022/04/18 11:01:11;;;;;;;2.65;1.27;;;;;;;21.89;25.57;101855.84;5112647;28;20588;-28
2022/04/18 11:03:48;;;;;;;2.50;1.13;;;;;;;21.79;25.92;101855.44;5111234;28;20515;-33
2022/04/18 11:06:46;;;;;;;2.13;1.15;;;;;;;21.80;24.66;101857.09;5112144;28;20070;-28
2022/04/18 11:09:16;;;;;;;3.08;1.50;;;;;;;21.74;25.77;101850.00;5102864;28;20043;-29
2022/04/18 11:11:48;;;;;;;1.85;1.08;;;;;;;21.74;25.55;101852.84;5109176;28;20515;-29
2022/04/18 11:14:18;;;;;;;3.08;1.20;;;;;;;21.73;26.02;101854.84;5112341;28;20142;-29
2022/04/18 11:17:11;;;;;;;1.83;1.20;;;;;;;21.77;24.95;101852.16;5113064;28;20089;-31
2022/04/18 11:19:39;;;;;;;2.63;1.40;;;;;;;21.62;25.94;101856.47;5084340;28;20303;-35
2022/04/18 11:22:11;;;;;;;3.63;1.50;;;;;;;21.77;25.89;101857.84;5112895;28;20074;-30
2022/04/18 11:24:41;;;;;;;2.92;1.33;;;;;;;21.80;26.32;101863.63;5111828;28;20055;-32
2022/04/18 11:27:10;;;;;;;2.75;1.60;;;;;;;21.82;26.21;101866.13;5111933;28;20043;-32
2022/04/18 11:29:39;;;;;;;2.85;1.65;;;;;;;21.74;27.11;101872.75;5111713;28;20048;-32
2022/04/18 11:32:09;;;;;;;2.95;1.38;;;;;;;21.63;27.03;101861.81;5111922;28;20059;-33
2022/04/18 11:34:37;;;;;;;2.90;1.40;;;;;;;21.68;27.51;101860.75;5112573;28;20496;-33
2022/04/18 11:37:08;;;;;;;2.80;1.88;;;;;;;21.93;26.62;101861.66;5101415;28;20048;-30
2022/04/18 11:39:45;;;;;;;3.40;2.00;;;;;;;21.85;24.87;101859.72;5111696;28;20063;-32
2022/04/18 11:42:18;;;;;;;2.85;1.98;;;;;;;21.59;25.91;101860.84;5112523;28;20046;-29
2022/04/18 11:44:47;;;;;;;4.15;2.30;;;;;;;21.34;26.56;101850.59;5107876;28;20040;-29
2022/04/18 11:47:18;;;;;;;2.80;2.03;;;;;;;21.26;26.72;101855.16;5111966;28;20416;-30
2022/04/18 11:49:46;;;;;;;3.42;2.30;;;;;;;21.16;27.00;101849.03;5112462;28;20036;-30
2022/04/18 11:52:21;;;;;;;4.45;2.28;;;;;;;21.15;26.38;101861.56;5112593;28;20032;-30
2022/04/18 11:54:58;;;;;;;2.70;2.00;;;;;;;20.89;26.81;101856.94;5111735;28;20051;-31
2022/04/18 11:57:27;;;;;;;3.88;2.25;;;;;;;21.03;26.88;101862.31;5109846;28;20369;-31
2022/04/18 11:59:56;;;;;;;3.55;2.20;;;;;;;21.24;27.40;101851.00;5111437;28;20047;-28
2022/04/18 12:08:07;;;;;;;3.80;2.25;;;;;;;21.71;27.54;101853.53;5111763;28;20039;-33
2022/04/18 12:10:41;;;;;;;3.38;2.45;;;;;;;21.73;27.46;101854.84;5108261;28;20075;-37
2022/04/18 12:13:10;;;;;;;4.75;2.75;;;;;;;21.43;26.76;101859.00;5112127;28;20051;-32
2022/04/18 12:15:39;;;;;;;3.85;2.75;;;;;;;21.12;27.64;101850.91;5109715;28;20070;-31
2022/04/18 12:18:10;;;;;;;4.03;2.83;;;;;;;20.83;27.93;101852.63;5111816;28;20054;-33